sensor_id;sensor_type;location;lat;lon;timestamp;pressure;altitude;pressure_sealevel;temperature
78669;BMP280;67984;45.118;20.724;2023-03-23T00:02:02;100460.78;;;8.80
78669;BMP280;67984;45.118;20.724;2023-03-23T00:12:03;100450.06;;;8.85
78669;BMP280;67984;45.118;20.724;2023-03-23T00:22:06;100449.13;;;9.00
78669;BMP280;67984;45.118;20.724;2023-03-23T00:32:08;100447.38;;;9.11
78669;BMP280;67984;45.118;20.724;2023-03-23T00:42:14;100440.78;;;9.17
78669;BMP280;67984;45.118;20.724;2023-03-23T00:52:16;100434.09;;;9.19
78669;BMP280;67984;45.118;20.724;2023-03-23T01:02:17;100430.00;;;9.18
78669;BMP280;67984;45.118;20.724;2023-03-23T01:12:18;100421.34;;;9.11
78669;BMP280;67984;45.118;20.724;2023-03-23T01:22:19;100410.19;;;9.07
78669;BMP280;67984;45.118;20.724;2023-03-23T01:32:20;100424.63;;;9.01
78669;BMP280;67984;45.118;20.724;2023-03-23T01:42:26;100420.81;;;8.95
78669;BMP280;67984;45.118;20.724;2023-03-23T01:52:31;100416.56;;;8.80
78669;BMP280;67984;45.118;20.724;2023-03-23T02:02:36;100434.34;;;8.75
78669;BMP280;67984;45.118;20.724;2023-03-23T02:12:39;100435.69;;;8.65
78669;BMP280;67984;45.118;20.724;2023-03-23T02:43:15;100453.81;;;8.58
78669;BMP280;67984;45.118;20.724;2023-03-23T02:53:20;100453.34;;;8.49
78669;BMP280;67984;45.118;20.724;2023-03-23T03:03:28;100461.44;;;8.44
78669;BMP280;67984;45.118;20.724;2023-03-23T03:23:44;100478.38;;;8.35
78669;BMP280;67984;45.118;20.724;2023-03-23T03:33:46;100470.97;;;8.37
78669;BMP280;67984;45.118;20.724;2023-03-23T03:43:48;100468.75;;;8.35
78669;BMP280;67984;45.118;20.724;2023-03-23T03:53:48;100472.84;;;8.36
78669;BMP280;67984;45.118;20.724;2023-03-23T04:03:50;100472.00;;;8.29
78669;BMP280;67984;45.118;20.724;2023-03-23T04:14:00;100472.94;;;8.18
78669;BMP280;67984;45.118;20.724;2023-03-23T04:24:13;100475.72;;;8.06
78669;BMP280;67984;45.118;20.724;2023-03-23T04:34:14;100483.13;;;8.04
78669;BMP280;67984;45.118;20.724;2023-03-23T04:44:20;100479.78;;;8.03
78669;BMP280;67984;45.118;20.724;2023-03-23T04:54:30;100472.78;;;8.07
78669;BMP280;67984;45.118;20.724;2023-03-23T05:04:34;100488.63;;;8.24
78669;BMP280;67984;45.118;20.724;2023-03-23T05:15:05;100483.09;;;8.52
78669;BMP280;67984;45.118;20.724;2023-03-23T05:25:08;100493.78;;;8.76
78669;BMP280;67984;45.118;20.724;2023-03-23T05:35:12;100496.53;;;8.83
78669;BMP280;67984;45.118;20.724;2023-03-23T05:45:13;100508.34;;;9.10
78669;BMP280;67984;45.118;20.724;2023-03-23T05:55:18;100490.09;;;9.43
78669;BMP280;67984;45.118;20.724;2023-03-23T06:05:26;100499.50;;;9.94
78669;BMP280;67984;45.118;20.724;2023-03-23T06:15:29;100498.31;;;10.41
78669;BMP280;67984;45.118;20.724;2023-03-23T06:25:45;100510.47;;;10.88
78669;BMP280;67984;45.118;20.724;2023-03-23T06:35:47;100512.09;;;11.41
78669;BMP280;67984;45.118;20.724;2023-03-23T06:46:15;100516.25;;;11.94
78669;BMP280;67984;45.118;20.724;2023-03-23T06:56:16;100520.63;;;12.42
78669;BMP280;67984;45.118;20.724;2023-03-23T07:06:18;100527.56;;;12.83
78669;BMP280;67984;45.118;20.724;2023-03-23T07:16:27;100537.84;;;13.25
78669;BMP280;67984;45.118;20.724;2023-03-23T07:26:28;100530.47;;;13.60
78669;BMP280;67984;45.118;20.724;2023-03-23T07:36:30;100546.22;;;14.00
78669;BMP280;67984;45.118;20.724;2023-03-23T07:46:32;100545.81;;;14.42
78669;BMP280;67984;45.118;20.724;2023-03-23T07:56:43;100544.69;;;14.72
78669;BMP280;67984;45.118;20.724;2023-03-23T08:06:56;100552.16;;;15.04
78669;BMP280;67984;45.118;20.724;2023-03-23T08:17:19;100557.97;;;15.41
78669;BMP280;67984;45.118;20.724;2023-03-23T08:27:41;100564.88;;;15.81
78669;BMP280;67984;45.118;20.724;2023-03-23T08:38:08;100570.16;;;16.19
78669;BMP280;67984;45.118;20.724;2023-03-23T08:48:20;100562.22;;;16.58
78669;BMP280;67984;45.118;20.724;2023-03-23T08:58:40;100565.38;;;16.88
78669;BMP280;67984;45.118;20.724;2023-03-23T09:08:50;100563.69;;;17.29
78669;BMP280;67984;45.118;20.724;2023-03-23T09:18:51;100566.00;;;17.71
78669;BMP280;67984;45.118;20.724;2023-03-23T09:28:53;100556.28;;;17.97
78669;BMP280;67984;45.118;20.724;2023-03-23T09:38:54;100547.06;;;18.29
78669;BMP280;67984;45.118;20.724;2023-03-23T09:49:00;100531.88;;;18.58
78669;BMP280;67984;45.118;20.724;2023-03-23T09:59:34;100535.66;;;18.82
78669;BMP280;67984;45.118;20.724;2023-03-23T10:09:37;100545.38;;;19.09
78669;BMP280;67984;45.118;20.724;2023-03-23T10:19:58;100526.03;;;19.34
78669;BMP280;67984;45.118;20.724;2023-03-23T10:30:20;100522.56;;;19.58
78669;BMP280;67984;45.118;20.724;2023-03-23T10:40:27;100509.63;;;19.81
78669;BMP280;67984;45.118;20.724;2023-03-23T10:50:31;100508.13;;;20.02
78669;BMP280;67984;45.118;20.724;2023-03-23T11:00:33;100496.13;;;20.18
78669;BMP280;67984;45.118;20.724;2023-03-23T11:10:48;100493.69;;;20.33
78669;BMP280;67984;45.118;20.724;2023-03-23T11:20:57;100494.09;;;20.31
78669;BMP280;67984;45.118;20.724;2023-03-23T11:31:01;100484.47;;;20.55
78669;BMP280;67984;45.118;20.724;2023-03-23T11:41:22;100464.41;;;20.54
78669;BMP280;67984;45.118;20.724;2023-03-23T12:11:54;100439.81;;;20.62
78669;BMP280;67984;45.118;20.724;2023-03-23T12:33:01;100422.03;;;21.08
78669;BMP280;67984;45.118;20.724;2023-03-23T12:53:31;100390.13;;;21.25
78669;BMP280;67984;45.118;20.724;2023-03-23T13:03:46;100393.94;;;21.24
78669;BMP280;67984;45.118;20.724;2023-03-23T13:13:54;100380.47;;;21.37
78669;BMP280;67984;45.118;20.724;2023-03-23T13:24:06;100367.38;;;21.33
78669;BMP280;67984;45.118;20.724;2023-03-23T13:34:21;100350.56;;;21.27
78669;BMP280;67984;45.118;20.724;2023-03-23T13:44:25;100346.28;;;21.30
78669;BMP280;67984;45.118;20.724;2023-03-23T14:04:31;100322.88;;;21.10
78669;BMP280;67984;45.118;20.724;2023-03-23T14:14:39;100318.47;;;21.16
78669;BMP280;67984;45.118;20.724;2023-03-23T14:24:41;100313.66;;;20.88
78669;BMP280;67984;45.118;20.724;2023-03-23T14:34:43;100310.41;;;20.93
78669;BMP280;67984;45.118;20.724;2023-03-23T14:44:48;100305.81;;;20.94
78669;BMP280;67984;45.118;20.724;2023-03-23T14:54:50;100317.00;;;20.98
78669;BMP280;67984;45.118;20.724;2023-03-23T15:05:03;100319.41;;;20.87
78669;BMP280;67984;45.118;20.724;2023-03-23T15:15:07;100301.88;;;20.71
78669;BMP280;67984;45.118;20.724;2023-03-23T15:35:35;100303.78;;;20.80
78669;BMP280;67984;45.118;20.724;2023-03-23T15:45:36;100299.53;;;20.82
78669;BMP280;67984;45.118;20.724;2023-03-23T15:55:37;100305.88;;;20.49
78669;BMP280;67984;45.118;20.724;2023-03-23T16:05:38;100325.00;;;20.00
78669;BMP280;67984;45.118;20.724;2023-03-23T16:15:39;100323.97;;;19.58
78669;BMP280;67984;45.118;20.724;2023-03-23T16:25:40;100331.13;;;19.18
78669;BMP280;67984;45.118;20.724;2023-03-23T16:35:41;100335.13;;;18.80
78669;BMP280;67984;45.118;20.724;2023-03-23T16:45:45;100335.91;;;18.22
78669;BMP280;67984;45.118;20.724;2023-03-23T16:55:46;100343.31;;;17.78
78669;BMP280;67984;45.118;20.724;2023-03-23T17:05:50;100353.78;;;17.28
78669;BMP280;67984;45.118;20.724;2023-03-23T17:15:52;100355.84;;;16.92
78669;BMP280;67984;45.118;20.724;2023-03-23T17:25:53;100352.28;;;16.55
78669;BMP280;67984;45.118;20.724;2023-03-23T17:35:55;100361.00;;;16.20
78669;BMP280;67984;45.118;20.724;2023-03-23T17:45:55;100379.28;;;15.92
78669;BMP280;67984;45.118;20.724;2023-03-23T17:55:57;100382.41;;;15.68
78669;BMP280;67984;45.118;20.724;2023-03-23T18:05:59;100380.56;;;15.45
78669;BMP280;67984;45.118;20.724;2023-03-23T18:16:01;100382.66;;;15.15
78669;BMP280;67984;45.118;20.724;2023-03-23T18:26:05;100375.56;;;14.89
78669;BMP280;67984;45.118;20.724;2023-03-23T18:36:06;100383.75;;;14.68
78669;BMP280;67984;45.118;20.724;2023-03-23T18:46:07;100385.06;;;14.57
78669;BMP280;67984;45.118;20.724;2023-03-23T18:56:10;100396.50;;;14.44
78669;BMP280;67984;45.118;20.724;2023-03-23T19:06:20;100397.44;;;14.30
78669;BMP280;67984;45.118;20.724;2023-03-23T19:16:22;100399.47;;;14.19
78669;BMP280;67984;45.118;20.724;2023-03-23T19:26:30;100402.94;;;14.09
78669;BMP280;67984;45.118;20.724;2023-03-23T19:36:31;100401.59;;;13.98
78669;BMP280;67984;45.118;20.724;2023-03-23T19:46:32;100411.53;;;13.80
78669;BMP280;67984;45.118;20.724;2023-03-23T19:56:33;100425.97;;;13.62
78669;BMP280;67984;45.118;20.724;2023-03-23T20:06:35;100423.09;;;13.46
78669;BMP280;67984;45.118;20.724;2023-03-23T20:16:36;100429.56;;;13.35
78669;BMP280;67984;45.118;20.724;2023-03-23T20:26:41;100431.28;;;13.08
78669;BMP280;67984;45.118;20.724;2023-03-23T20:36:44;100432.03;;;13.12
78669;BMP280;67984;45.118;20.724;2023-03-23T20:46:46;100434.13;;;12.80
78669;BMP280;67984;45.118;20.724;2023-03-23T20:56:48;100435.66;;;12.64
78669;BMP280;67984;45.118;20.724;2023-03-23T21:06:49;100444.69;;;12.59
78669;BMP280;67984;45.118;20.724;2023-03-23T21:16:51;100439.91;;;12.40
78669;BMP280;67984;45.118;20.724;2023-03-23T21:26:53;100435.09;;;12.28
78669;BMP280;67984;45.118;20.724;2023-03-23T21:36:54;100426.16;;;12.19
78669;BMP280;67984;45.118;20.724;2023-03-23T21:46:55;100406.75;;;12.10
78669;BMP280;67984;45.118;20.724;2023-03-23T21:56:57;100400.41;;;12.04
78669;BMP280;67984;45.118;20.724;2023-03-23T22:06:58;100400.09;;;11.84
78669;BMP280;67984;45.118;20.724;2023-03-23T22:16:59;100416.56;;;11.78
78669;BMP280;67984;45.118;20.724;2023-03-23T22:27:00;100420.28;;;11.59
78669;BMP280;67984;45.118;20.724;2023-03-23T22:37:01;100419.56;;;11.42
78669;BMP280;67984;45.118;20.724;2023-03-23T22:47:03;100427.38;;;11.45
78669;BMP280;67984;45.118;20.724;2023-03-23T22:57:04;100424.41;;;11.40
78669;BMP280;67984;45.118;20.724;2023-03-23T23:07:04;100417.69;;;11.18
78669;BMP280;67984;45.118;20.724;2023-03-23T23:17:05;100424.78;;;11.10
78669;BMP280;67984;45.118;20.724;2023-03-23T23:27:06;100414.34;;;11.35
78669;BMP280;67984;45.118;20.724;2023-03-23T23:37:07;100415.44;;;11.37
78669;BMP280;67984;45.118;20.724;2023-03-23T23:47:09;100396.41;;;11.19
78669;BMP280;67984;45.118;20.724;2023-03-23T23:57:10;100390.06;;;10.99
